sensor_id;sensor_type;location;lat;lon;timestamp;P1;durP1;ratioP1;P2;durP2;ratioP2
11618;SDS011;5865;48.776;9.280;2022-07-29T00:00:29;6.65;;;4.75;;
11618;SDS011;5865;48.776;9.280;2022-07-29T00:02:56;5.35;;;4.28;;
11618;SDS011;5865;48.776;9.280;2022-07-29T00:05:24;5.07;;;4.53;;
11618;SDS011;5865;48.776;9.280;2022-07-29T00:07:51;7.15;;;4.80;;
11618;SDS011;5865;48.776;9.280;2022-07-29T00:10:18;5.28;;;4.82;;
11618;SDS011;5865;48.776;9.280;2022-07-29T00:12:46;4.95;;;4.55;;
11618;SDS011;5865;48.776;9.280;2022-07-29T00:15:13;5.30;;;4.75;;
11618;SDS011;5865;48.776;9.280;2022-07-29T00:17:40;6.82;;;5.05;;
11618;SDS011;5865;48.776;9.280;2022-07-29T00:20:07;8.00;;;5.07;;
11618;SDS011;5865;48.776;9.280;2022-07-29T00:22:38;5.00;;;4.40;;
11618;SDS011;5865;48.776;9.280;2022-07-29T00:25:05;5.10;;;4.60;;
11618;SDS011;5865;48.776;9.280;2022-07-29T00:27:33;6.13;;;4.80;;
11618;SDS011;5865;48.776;9.280;2022-07-29T00:30:00;5.47;;;4.97;;
11618;SDS011;5865;48.776;9.280;2022-07-29T00:32:27;5.28;;;4.78;;
11618;SDS011;5865;48.776;9.280;2022-07-29T00:34:54;8.25;;;5.13;;
11618;SDS011;5865;48.776;9.280;2022-07-29T00:37:40;6.00;;;5.45;;
11618;SDS011;5865;48.776;9.280;2022-07-29T00:40:07;5.35;;;4.82;;
11618;SDS011;5865;48.776;9.280;2022-07-29T00:42:41;6.03;;;4.85;;
11618;SDS011;5865;48.776;9.280;2022-07-29T00:45:09;6.72;;;4.90;;
11618;SDS011;5865;48.776;9.280;2022-07-29T00:47:36;5.88;;;5.28;;
11618;SDS011;5865;48.776;9.280;2022-07-29T00:50:04;5.70;;;5.18;;
11618;SDS011;5865;48.776;9.280;2022-07-29T00:52:32;5.90;;;4.78;;
11618;SDS011;5865;48.776;9.280;2022-07-29T00:55:01;5.22;;;4.72;;
11618;SDS011;5865;48.776;9.280;2022-07-29T00:57:29;4.88;;;4.47;;
11618;SDS011;5865;48.776;9.280;2022-07-29T00:59:56;4.90;;;4.50;;
11618;SDS011;5865;48.776;9.280;2022-07-29T01:02:23;5.05;;;4.60;;
11618;SDS011;5865;48.776;9.280;2022-07-29T01:04:50;6.40;;;4.75;;
11618;SDS011;5865;48.776;9.280;2022-07-29T01:07:17;5.57;;;4.40;;
11618;SDS011;5865;48.776;9.280;2022-07-29T01:09:45;6.00;;;4.68;;
11618;SDS011;5865;48.776;9.280;2022-07-29T01:12:15;5.70;;;4.30;;
11618;SDS011;5865;48.776;9.280;2022-07-29T01:14:45;5.68;;;4.80;;
11618;SDS011;5865;48.776;9.280;2022-07-29T01:17:14;5.25;;;4.75;;
11618;SDS011;5865;48.776;9.280;2022-07-29T01:19:48;5.45;;;4.90;;
11618;SDS011;5865;48.776;9.280;2022-07-29T01:22:24;5.38;;;4.80;;
11618;SDS011;5865;48.776;9.280;2022-07-29T01:25:11;5.50;;;5.00;;
11618;SDS011;5865;48.776;9.280;2022-07-29T01:27:59;5.60;;;5.10;;
11618;SDS011;5865;48.776;9.280;2022-07-29T01:30:37;5.43;;;4.93;;
11618;SDS011;5865;48.776;9.280;2022-07-29T01:33:06;6.80;;;5.47;;
11618;SDS011;5865;48.776;9.280;2022-07-29T01:36:01;6.75;;;4.88;;
11618;SDS011;5865;48.776;9.280;2022-07-29T01:38:36;5.53;;;5.00;;
11618;SDS011;5865;48.776;9.280;2022-07-29T01:41:07;4.93;;;4.30;;
11618;SDS011;5865;48.776;9.280;2022-07-29T01:43:38;6.03;;;5.30;;
11618;SDS011;5865;48.776;9.280;2022-07-29T01:46:13;6.43;;;5.18;;
11618;SDS011;5865;48.776;9.280;2022-07-29T01:48:45;5.82;;;4.80;;
11618;SDS011;5865;48.776;9.280;2022-07-29T01:51:16;5.20;;;4.72;;
11618;SDS011;5865;48.776;9.280;2022-07-29T01:53:47;5.72;;;5.05;;
11618;SDS011;5865;48.776;9.280;2022-07-29T01:56:21;4.68;;;4.15;;
11618;SDS011;5865;48.776;9.280;2022-07-29T01:58:50;5.00;;;4.60;;
11618;SDS011;5865;48.776;9.280;2022-07-29T02:01:19;5.22;;;4.60;;
11618;SDS011;5865;48.776;9.280;2022-07-29T02:03:49;4.90;;;4.32;;
11618;SDS011;5865;48.776;9.280;2022-07-29T02:06:19;5.60;;;5.10;;
11618;SDS011;5865;48.776;9.280;2022-07-29T02:08:48;5.80;;;5.28;;
11618;SDS011;5865;48.776;9.280;2022-07-29T02:11:16;5.75;;;5.20;;
11618;SDS011;5865;48.776;9.280;2022-07-29T02:13:43;5.30;;;4.80;;
11618;SDS011;5865;48.776;9.280;2022-07-29T02:16:11;5.00;;;4.60;;
11618;SDS011;5865;48.776;9.280;2022-07-29T02:18:41;4.93;;;4.45;;
11618;SDS011;5865;48.776;9.280;2022-07-29T02:21:10;5.28;;;4.80;;
11618;SDS011;5865;48.776;9.280;2022-07-29T02:23:39;4.93;;;4.43;;
11618;SDS011;5865;48.776;9.280;2022-07-29T02:26:07;5.35;;;4.63;;
11618;SDS011;5865;48.776;9.280;2022-07-29T02:28:34;6.07;;;4.53;;
11618;SDS011;5865;48.776;9.280;2022-07-29T02:31:02;4.97;;;4.57;;
11618;SDS011;5865;48.776;9.280;2022-07-29T02:33:31;5.15;;;4.65;;
11618;SDS011;5865;48.776;9.280;2022-07-29T02:36:00;5.30;;;4.80;;
11618;SDS011;5865;48.776;9.280;2022-07-29T02:38:29;4.53;;;4.15;;
11618;SDS011;5865;48.776;9.280;2022-07-29T02:41:15;4.72;;;4.32;;
11618;SDS011;5865;48.776;9.280;2022-07-29T02:43:45;4.75;;;4.35;;
11618;SDS011;5865;48.776;9.280;2022-07-29T02:46:16;6.50;;;4.55;;
11618;SDS011;5865;48.776;9.280;2022-07-29T02:48:48;4.65;;;4.25;;
11618;SDS011;5865;48.776;9.280;2022-07-29T02:51:19;4.95;;;4.47;;
11618;SDS011;5865;48.776;9.280;2022-07-29T02:53:53;4.85;;;4.45;;
11618;SDS011;5865;48.776;9.280;2022-07-29T02:56:25;4.47;;;4.07;;
11618;SDS011;5865;48.776;9.280;2022-07-29T02:58:54;5.00;;;4.15;;
11618;SDS011;5865;48.776;9.280;2022-07-29T03:01:28;4.90;;;4.40;;
11618;SDS011;5865;48.776;9.280;2022-07-29T03:04:00;4.90;;;4.40;;
11618;SDS011;5865;48.776;9.280;2022-07-29T03:06:32;5.05;;;4.47;;
11618;SDS011;5865;48.776;9.280;2022-07-29T03:09:00;5.18;;;4.25;;
11618;SDS011;5865;48.776;9.280;2022-07-29T03:11:28;4.43;;;4.03;;
11618;SDS011;5865;48.776;9.280;2022-07-29T03:13:55;5.10;;;4.60;;
11618;SDS011;5865;48.776;9.280;2022-07-29T03:16:23;4.93;;;4.10;;
11618;SDS011;5865;48.776;9.280;2022-07-29T03:18:51;3.80;;;3.50;;
11618;SDS011;5865;48.776;9.280;2022-07-29T03:21:19;5.10;;;4.30;;
11618;SDS011;5865;48.776;9.280;2022-07-29T03:23:48;4.15;;;3.85;;
11618;SDS011;5865;48.776;9.280;2022-07-29T03:26:15;4.68;;;4.22;;
11618;SDS011;5865;48.776;9.280;2022-07-29T03:28:42;5.53;;;4.35;;
11618;SDS011;5865;48.776;9.280;2022-07-29T03:31:09;4.80;;;4.35;;
11618;SDS011;5865;48.776;9.280;2022-07-29T03:33:36;5.63;;;4.65;;
11618;SDS011;5865;48.776;9.280;2022-07-29T03:36:03;4.88;;;4.18;;
11618;SDS011;5865;48.776;9.280;2022-07-29T03:38:30;4.53;;;3.90;;
11618;SDS011;5865;48.776;9.280;2022-07-29T03:41:02;5.20;;;4.10;;
11618;SDS011;5865;48.776;9.280;2022-07-29T03:43:32;4.18;;;3.70;;
11618;SDS011;5865;48.776;9.280;2022-07-29T03:46:02;4.45;;;4.05;;
11618;SDS011;5865;48.776;9.280;2022-07-29T03:48:32;4.88;;;4.20;;
11618;SDS011;5865;48.776;9.280;2022-07-29T03:51:02;4.80;;;4.32;;
11618;SDS011;5865;48.776;9.280;2022-07-29T03:53:29;4.57;;;4.18;;
11618;SDS011;5865;48.776;9.280;2022-07-29T03:55:58;4.10;;;3.70;;
11618;SDS011;5865;48.776;9.280;2022-07-29T03:58:28;4.75;;;4.10;;
11618;SDS011;5865;48.776;9.280;2022-07-29T04:00:57;4.50;;;4.10;;
11618;SDS011;5865;48.776;9.280;2022-07-29T04:03:25;4.25;;;3.85;;
11618;SDS011;5865;48.776;9.280;2022-07-29T04:05:59;5.82;;;4.10;;
11618;SDS011;5865;48.776;9.280;2022-07-29T04:08:27;3.83;;;3.53;;
11618;SDS011;5865;48.776;9.280;2022-07-29T04:10:54;4.28;;;3.88;;
11618;SDS011;5865;48.776;9.280;2022-07-29T04:13:21;4.43;;;4.03;;
11618;SDS011;5865;48.776;9.280;2022-07-29T04:15:49;4.65;;;4.25;;
11618;SDS011;5865;48.776;9.280;2022-07-29T04:18:16;4.25;;;3.88;;
11618;SDS011;5865;48.776;9.280;2022-07-29T04:20:43;3.85;;;3.53;;
11618;SDS011;5865;48.776;9.280;2022-07-29T04:23:11;4.05;;;3.65;;
11618;SDS011;5865;48.776;9.280;2022-07-29T04:25:38;3.88;;;3.58;;
11618;SDS011;5865;48.776;9.280;2022-07-29T04:28:06;4.78;;;3.65;;
11618;SDS011;5865;48.776;9.280;2022-07-29T04:33:16;4.93;;;3.80;;
11618;SDS011;5865;48.776;9.280;2022-07-29T04:35:55;3.90;;;3.60;;
11618;SDS011;5865;48.776;9.280;2022-07-29T04:38:23;3.83;;;3.47;;
11618;SDS011;5865;48.776;9.280;2022-07-29T04:41:04;4.20;;;3.80;;
11618;SDS011;5865;48.776;9.280;2022-07-29T04:43:32;3.58;;;3.22;;
11618;SDS011;5865;48.776;9.280;2022-07-29T04:45:59;3.88;;;3.47;;
11618;SDS011;5865;48.776;9.280;2022-07-29T04:48:33;3.88;;;3.47;;
11618;SDS011;5865;48.776;9.280;2022-07-29T04:51:01;4.32;;;3.67;;
11618;SDS011;5865;48.776;9.280;2022-07-29T04:53:29;5.68;;;3.60;;
11618;SDS011;5865;48.776;9.280;2022-07-29T04:55:59;5.07;;;3.78;;
11618;SDS011;5865;48.776;9.280;2022-07-29T04:58:27;3.85;;;3.55;;
11618;SDS011;5865;48.776;9.280;2022-07-29T05:00:54;3.78;;;3.47;;
11618;SDS011;5865;48.776;9.280;2022-07-29T05:03:25;3.83;;;3.40;;
11618;SDS011;5865;48.776;9.280;2022-07-29T05:05:53;4.50;;;3.78;;
11618;SDS011;5865;48.776;9.280;2022-07-29T05:08:21;4.25;;;3.80;;
11618;SDS011;5865;48.776;9.280;2022-07-29T05:10:48;4.75;;;3.70;;
11618;SDS011;5865;48.776;9.280;2022-07-29T05:13:15;4.20;;;3.90;;
11618;SDS011;5865;48.776;9.280;2022-07-29T05:15:52;3.90;;;3.50;;
11618;SDS011;5865;48.776;9.280;2022-07-29T05:18:41;5.03;;;4.25;;
11618;SDS011;5865;48.776;9.280;2022-07-29T05:21:10;4.38;;;3.97;;
11618;SDS011;5865;48.776;9.280;2022-07-29T05:23:38;3.97;;;3.50;;
11618;SDS011;5865;48.776;9.280;2022-07-29T05:26:06;3.97;;;3.58;;
11618;SDS011;5865;48.776;9.280;2022-07-29T05:28:36;4.63;;;3.95;;
11618;SDS011;5865;48.776;9.280;2022-07-29T05:31:08;3.63;;;3.33;;
11618;SDS011;5865;48.776;9.280;2022-07-29T05:33:35;4.70;;;4.28;;
11618;SDS011;5865;48.776;9.280;2022-07-29T05:36:03;4.63;;;4.00;;
11618;SDS011;5865;48.776;9.280;2022-07-29T05:38:40;4.65;;;3.92;;
11618;SDS011;5865;48.776;9.280;2022-07-29T05:41:10;4.10;;;3.70;;
11618;SDS011;5865;48.776;9.280;2022-07-29T05:43:51;4.43;;;3.90;;
11618;SDS011;5865;48.776;9.280;2022-07-29T05:46:21;3.70;;;3.40;;
11618;SDS011;5865;48.776;9.280;2022-07-29T05:48:49;3.90;;;3.50;;
11618;SDS011;5865;48.776;9.280;2022-07-29T05:51:19;4.20;;;3.50;;
11618;SDS011;5865;48.776;9.280;2022-07-29T05:53:48;3.58;;;3.28;;
11618;SDS011;5865;48.776;9.280;2022-07-29T05:56:17;4.38;;;3.60;;
11618;SDS011;5865;48.776;9.280;2022-07-29T05:58:44;3.72;;;3.33;;
11618;SDS011;5865;48.776;9.280;2022-07-29T06:01:12;4.25;;;3.10;;
11618;SDS011;5865;48.776;9.280;2022-07-29T06:03:53;4.35;;;3.25;;
11618;SDS011;5865;48.776;9.280;2022-07-29T06:06:27;3.63;;;3.33;;
11618;SDS011;5865;48.776;9.280;2022-07-29T06:11:59;4.05;;;3.20;;
11618;SDS011;5865;48.776;9.280;2022-07-29T06:14:27;3.72;;;3.42;;
11618;SDS011;5865;48.776;9.280;2022-07-29T06:16:55;3.63;;;3.17;;
11618;SDS011;5865;48.776;9.280;2022-07-29T06:19:25;3.50;;;3.20;;
11618;SDS011;5865;48.776;9.280;2022-07-29T06:21:55;3.30;;;3.00;;
11618;SDS011;5865;48.776;9.280;2022-07-29T06:24:25;3.58;;;3.15;;
11618;SDS011;5865;48.776;9.280;2022-07-29T06:27:06;4.70;;;3.20;;
11618;SDS011;5865;48.776;9.280;2022-07-29T06:29:34;4.22;;;3.20;;
11618;SDS011;5865;48.776;9.280;2022-07-29T06:32:06;3.30;;;3.00;;
11618;SDS011;5865;48.776;9.280;2022-07-29T06:34:34;4.07;;;3.30;;
11618;SDS011;5865;48.776;9.280;2022-07-29T06:37:05;5.35;;;3.50;;
11618;SDS011;5865;48.776;9.280;2022-07-29T06:39:38;3.35;;;2.97;;
11618;SDS011;5865;48.776;9.280;2022-07-29T06:42:07;3.03;;;2.70;;
11618;SDS011;5865;48.776;9.280;2022-07-29T06:44:37;2.75;;;2.40;;
11618;SDS011;5865;48.776;9.280;2022-07-29T06:47:06;4.22;;;2.38;;
11618;SDS011;5865;48.776;9.280;2022-07-29T06:49:34;3.03;;;2.30;;
11618;SDS011;5865;48.776;9.280;2022-07-29T06:52:15;2.67;;;2.47;;
11618;SDS011;5865;48.776;9.280;2022-07-29T06:54:43;3.30;;;2.40;;
11618;SDS011;5865;48.776;9.280;2022-07-29T06:57:40;2.90;;;2.70;;
11618;SDS011;5865;48.776;9.280;2022-07-29T07:00:11;4.65;;;2.90;;
11618;SDS011;5865;48.776;9.280;2022-07-29T07:02:39;4.43;;;2.70;;
11618;SDS011;5865;48.776;9.280;2022-07-29T07:05:07;4.43;;;2.70;;
11618;SDS011;5865;48.776;9.280;2022-07-29T07:07:38;2.70;;;2.50;;
11618;SDS011;5865;48.776;9.280;2022-07-29T07:10:13;3.90;;;2.80;;
11618;SDS011;5865;48.776;9.280;2022-07-29T07:12:44;2.83;;;2.53;;
11618;SDS011;5865;48.776;9.280;2022-07-29T07:15:14;4.28;;;2.85;;
11618;SDS011;5865;48.776;9.280;2022-07-29T07:17:47;3.47;;;2.50;;
11618;SDS011;5865;48.776;9.280;2022-07-29T07:20:19;3.05;;;2.60;;
11618;SDS011;5865;48.776;9.280;2022-07-29T07:22:57;4.35;;;2.83;;
11618;SDS011;5865;48.776;9.280;2022-07-29T07:25:43;3.53;;;3.20;;
11618;SDS011;5865;48.776;9.280;2022-07-29T07:31:10;7.30;;;3.08;;
11618;SDS011;5865;48.776;9.280;2022-07-29T07:33:39;3.65;;;3.05;;
11618;SDS011;5865;48.776;9.280;2022-07-29T07:36:11;3.50;;;3.15;;
11618;SDS011;5865;48.776;9.280;2022-07-29T07:38:45;4.10;;;2.85;;
11618;SDS011;5865;48.776;9.280;2022-07-29T07:41:38;4.45;;;3.10;;
11618;SDS011;5865;48.776;9.280;2022-07-29T07:45:31;4.50;;;3.05;;
11618;SDS011;5865;48.776;9.280;2022-07-29T07:47:39;3.50;;;3.20;;
11618;SDS011;5865;48.776;9.280;2022-07-29T07:50:36;3.15;;;2.83;;
11618;SDS011;5865;48.776;9.280;2022-07-29T07:53:31;4.05;;;3.10;;
11618;SDS011;5865;48.776;9.280;2022-07-29T07:56:09;4.13;;;3.00;;
11618;SDS011;5865;48.776;9.280;2022-07-29T07:58:39;3.22;;;2.90;;
11618;SDS011;5865;48.776;9.280;2022-07-29T08:01:25;3.63;;;3.00;;
11618;SDS011;5865;48.776;9.280;2022-07-29T08:07:02;4.25;;;2.85;;
11618;SDS011;5865;48.776;9.280;2022-07-29T08:10:01;4.53;;;3.33;;
11618;SDS011;5865;48.776;9.280;2022-07-29T08:17:11;4.00;;;3.00;;
11618;SDS011;5865;48.776;9.280;2022-07-29T08:20:11;2.90;;;2.70;;
11618;SDS011;5865;48.776;9.280;2022-07-29T08:23:17;4.10;;;2.90;;
11618;SDS011;5865;48.776;9.280;2022-07-29T08:25:45;3.42;;;3.08;;
11618;SDS011;5865;48.776;9.280;2022-07-29T08:28:12;3.20;;;2.80;;
11618;SDS011;5865;48.776;9.280;2022-07-29T08:30:45;4.38;;;2.58;;
11618;SDS011;5865;48.776;9.280;2022-07-29T08:33:15;3.50;;;2.65;;
11618;SDS011;5865;48.776;9.280;2022-07-29T08:35:46;4.53;;;2.70;;
11618;SDS011;5865;48.776;9.280;2022-07-29T08:38:17;4.20;;;3.08;;
11618;SDS011;5865;48.776;9.280;2022-07-29T08:40:47;2.95;;;2.75;;
11618;SDS011;5865;48.776;9.280;2022-07-29T08:43:14;2.90;;;2.70;;
11618;SDS011;5865;48.776;9.280;2022-07-29T08:45:50;3.67;;;3.00;;
11618;SDS011;5865;48.776;9.280;2022-07-29T08:48:20;6.63;;;3.03;;
11618;SDS011;5865;48.776;9.280;2022-07-29T08:50:48;4.18;;;3.00;;
11618;SDS011;5865;48.776;9.280;2022-07-29T08:53:18;5.97;;;2.83;;
11618;SDS011;5865;48.776;9.280;2022-07-29T08:55:47;4.03;;;3.55;;
11618;SDS011;5865;48.776;9.280;2022-07-29T08:58:24;3.67;;;3.05;;
11618;SDS011;5865;48.776;9.280;2022-07-29T09:01:05;4.50;;;3.22;;
11618;SDS011;5865;48.776;9.280;2022-07-29T09:03:39;4.32;;;2.97;;
11618;SDS011;5865;48.776;9.280;2022-07-29T09:06:12;3.42;;;2.97;;
11618;SDS011;5865;48.776;9.280;2022-07-29T09:08:42;3.10;;;2.90;;
11618;SDS011;5865;48.776;9.280;2022-07-29T09:11:13;5.88;;;2.67;;
11618;SDS011;5865;48.776;9.280;2022-07-29T09:13:53;5.60;;;2.97;;
11618;SDS011;5865;48.776;9.280;2022-07-29T09:16:21;5.22;;;3.10;;
11618;SDS011;5865;48.776;9.280;2022-07-29T09:18:48;4.35;;;2.80;;
11618;SDS011;5865;48.776;9.280;2022-07-29T09:21:16;4.22;;;2.95;;
11618;SDS011;5865;48.776;9.280;2022-07-29T09:24:05;4.82;;;2.88;;
11618;SDS011;5865;48.776;9.280;2022-07-29T09:26:41;5.35;;;3.00;;
11618;SDS011;5865;48.776;9.280;2022-07-29T09:29:15;3.47;;;3.00;;
11618;SDS011;5865;48.776;9.280;2022-07-29T09:31:54;3.05;;;2.75;;
11618;SDS011;5865;48.776;9.280;2022-07-29T09:34:24;3.90;;;2.80;;
11618;SDS011;5865;48.776;9.280;2022-07-29T09:36:53;3.58;;;2.80;;
11618;SDS011;5865;48.776;9.280;2022-07-29T09:39:34;4.50;;;3.22;;
11618;SDS011;5865;48.776;9.280;2022-07-29T09:42:06;4.22;;;3.00;;
11618;SDS011;5865;48.776;9.280;2022-07-29T09:44:40;7.30;;;3.00;;
11618;SDS011;5865;48.776;9.280;2022-07-29T09:47:09;13.05;;;3.67;;
11618;SDS011;5865;48.776;9.280;2022-07-29T09:52:45;7.05;;;3.55;;
11618;SDS011;5865;48.776;9.280;2022-07-29T09:55:40;9.63;;;3.42;;
11618;SDS011;5865;48.776;9.280;2022-07-29T09:58:26;6.15;;;3.42;;
11618;SDS011;5865;48.776;9.280;2022-07-29T10:00:59;7.28;;;4.13;;
11618;SDS011;5865;48.776;9.280;2022-07-29T10:03:29;6.72;;;3.40;;
11618;SDS011;5865;48.776;9.280;2022-07-29T10:06:30;5.95;;;3.30;;
11618;SDS011;5865;48.776;9.280;2022-07-29T10:09:06;3.78;;;3.28;;
11618;SDS011;5865;48.776;9.280;2022-07-29T10:11:57;4.60;;;3.03;;
11618;SDS011;5865;48.776;9.280;2022-07-29T10:14:29;4.07;;;3.15;;
11618;SDS011;5865;48.776;9.280;2022-07-29T10:17:01;4.15;;;3.08;;
11618;SDS011;5865;48.776;9.280;2022-07-29T10:19:36;4.60;;;3.40;;
11618;SDS011;5865;48.776;9.280;2022-07-29T10:22:11;4.25;;;2.90;;
11618;SDS011;5865;48.776;9.280;2022-07-29T10:27:36;3.72;;;3.42;;
11618;SDS011;5865;48.776;9.280;2022-07-29T10:30:05;4.18;;;3.17;;
11618;SDS011;5865;48.776;9.280;2022-07-29T10:32:42;5.22;;;3.28;;
11618;SDS011;5865;48.776;9.280;2022-07-29T10:35:44;6.45;;;3.00;;
11618;SDS011;5865;48.776;9.280;2022-07-29T10:38:34;5.45;;;3.10;;
11618;SDS011;5865;48.776;9.280;2022-07-29T10:44:03;4.72;;;2.83;;
11618;SDS011;5865;48.776;9.280;2022-07-29T10:46:34;3.25;;;2.78;;
11618;SDS011;5865;48.776;9.280;2022-07-29T10:49:10;3.97;;;2.92;;
11618;SDS011;5865;48.776;9.280;2022-07-29T10:51:59;4.00;;;3.22;;
11618;SDS011;5865;48.776;9.280;2022-07-29T10:54:37;3.45;;;3.15;;
11618;SDS011;5865;48.776;9.280;2022-07-29T10:57:20;5.13;;;3.25;;
11618;SDS011;5865;48.776;9.280;2022-07-29T11:02:44;7.18;;;3.60;;
11618;SDS011;5865;48.776;9.280;2022-07-29T11:05:16;6.65;;;4.20;;
11618;SDS011;5865;48.776;9.280;2022-07-29T11:10:46;7.38;;;4.38;;
11618;SDS011;5865;48.776;9.280;2022-07-29T11:16:12;7.60;;;4.70;;
11618;SDS011;5865;48.776;9.280;2022-07-29T11:21:42;9.98;;;6.45;;
11618;SDS011;5865;48.776;9.280;2022-07-29T11:24:14;13.27;;;6.40;;
11618;SDS011;5865;48.776;9.280;2022-07-29T11:26:42;7.63;;;5.78;;
11618;SDS011;5865;48.776;9.280;2022-07-29T11:29:16;9.88;;;6.30;;
11618;SDS011;5865;48.776;9.280;2022-07-29T11:31:48;8.55;;;6.15;;
11618;SDS011;5865;48.776;9.280;2022-07-29T11:34:23;7.18;;;4.70;;
11618;SDS011;5865;48.776;9.280;2022-07-29T11:40:15;6.25;;;3.30;;
11618;SDS011;5865;48.776;9.280;2022-07-29T11:42:45;7.55;;;3.70;;
11618;SDS011;5865;48.776;9.280;2022-07-29T11:45:14;7.22;;;3.40;;
11618;SDS011;5865;48.776;9.280;2022-07-29T11:47:47;5.30;;;3.75;;
11618;SDS011;5865;48.776;9.280;2022-07-29T11:50:18;5.43;;;3.65;;
11618;SDS011;5865;48.776;9.280;2022-07-29T11:52:57;6.07;;;3.80;;
11618;SDS011;5865;48.776;9.280;2022-07-29T11:55:25;5.50;;;3.70;;
11618;SDS011;5865;48.776;9.280;2022-07-29T11:57:53;7.60;;;3.90;;
11618;SDS011;5865;48.776;9.280;2022-07-29T12:00:22;7.95;;;4.07;;
11618;SDS011;5865;48.776;9.280;2022-07-29T12:02:51;8.73;;;4.35;;
11618;SDS011;5865;48.776;9.280;2022-07-29T12:05:19;7.18;;;3.75;;
11618;SDS011;5865;48.776;9.280;2022-07-29T12:07:47;6.78;;;4.28;;
11618;SDS011;5865;48.776;9.280;2022-07-29T12:10:14;3.55;;;3.05;;
11618;SDS011;5865;48.776;9.280;2022-07-29T12:12:43;4.55;;;2.83;;
11618;SDS011;5865;48.776;9.280;2022-07-29T12:15:18;4.53;;;2.10;;
11618;SDS011;5865;48.776;9.280;2022-07-29T12:17:46;5.18;;;2.60;;
11618;SDS011;5865;48.776;9.280;2022-07-29T12:20:14;2.85;;;2.10;;
11618;SDS011;5865;48.776;9.280;2022-07-29T12:22:49;4.10;;;2.25;;
11618;SDS011;5865;48.776;9.280;2022-07-29T12:25:19;3.13;;;2.45;;
11618;SDS011;5865;48.776;9.280;2022-07-29T12:27:48;3.22;;;2.40;;
11618;SDS011;5865;48.776;9.280;2022-07-29T12:30:33;4.72;;;2.63;;
11618;SDS011;5865;48.776;9.280;2022-07-29T12:33:01;3.63;;;2.60;;
11618;SDS011;5865;48.776;9.280;2022-07-29T12:35:36;4.78;;;2.55;;
11618;SDS011;5865;48.776;9.280;2022-07-29T12:38:03;3.55;;;2.70;;
11618;SDS011;5865;48.776;9.280;2022-07-29T12:40:30;3.72;;;2.70;;
11618;SDS011;5865;48.776;9.280;2022-07-29T12:43:09;2.72;;;2.40;;
11618;SDS011;5865;48.776;9.280;2022-07-29T12:45:38;5.20;;;2.60;;
11618;SDS011;5865;48.776;9.280;2022-07-29T12:48:06;3.78;;;2.30;;
11618;SDS011;5865;48.776;9.280;2022-07-29T12:50:35;3.65;;;2.30;;
11618;SDS011;5865;48.776;9.280;2022-07-29T12:55:58;2.65;;;2.05;;
11618;SDS011;5865;48.776;9.280;2022-07-29T12:58:32;3.55;;;2.05;;
11618;SDS011;5865;48.776;9.280;2022-07-29T13:01:04;2.47;;;2.28;;
11618;SDS011;5865;48.776;9.280;2022-07-29T13:03:46;3.08;;;2.13;;
11618;SDS011;5865;48.776;9.280;2022-07-29T13:06:31;3.15;;;2.10;;
11618;SDS011;5865;48.776;9.280;2022-07-29T13:09:04;5.90;;;2.47;;
11618;SDS011;5865;48.776;9.280;2022-07-29T13:11:33;3.15;;;2.20;;
11618;SDS011;5865;48.776;9.280;2022-07-29T13:14:03;2.95;;;2.35;;
11618;SDS011;5865;48.776;9.280;2022-07-29T13:19:35;2.85;;;2.55;;
11618;SDS011;5865;48.776;9.280;2022-07-29T13:22:03;2.47;;;2.25;;
11618;SDS011;5865;48.776;9.280;2022-07-29T13:24:31;3.15;;;2.47;;
11618;SDS011;5865;48.776;9.280;2022-07-29T13:27:02;3.13;;;2.53;;
11618;SDS011;5865;48.776;9.280;2022-07-29T13:29:31;4.00;;;2.90;;
11618;SDS011;5865;48.776;9.280;2022-07-29T13:31:58;3.70;;;2.92;;
11618;SDS011;5865;48.776;9.280;2022-07-29T13:34:25;2.97;;;2.63;;
11618;SDS011;5865;48.776;9.280;2022-07-29T13:36:52;3.10;;;2.80;;
11618;SDS011;5865;48.776;9.280;2022-07-29T13:39:19;4.50;;;3.80;;
11618;SDS011;5865;48.776;9.280;2022-07-29T13:41:46;4.20;;;2.80;;
11618;SDS011;5865;48.776;9.280;2022-07-29T13:44:13;4.60;;;3.50;;
11618;SDS011;5865;48.776;9.280;2022-07-29T13:46:44;4.97;;;3.30;;
11618;SDS011;5865;48.776;9.280;2022-07-29T13:49:11;3.67;;;3.30;;
11618;SDS011;5865;48.776;9.280;2022-07-29T13:51:38;4.22;;;3.83;;
11618;SDS011;5865;48.776;9.280;2022-07-29T13:54:05;3.92;;;3.53;;
11618;SDS011;5865;48.776;9.280;2022-07-29T13:56:32;5.55;;;3.40;;
11618;SDS011;5865;48.776;9.280;2022-07-29T13:58:59;4.50;;;3.55;;
11618;SDS011;5865;48.776;9.280;2022-07-29T14:01:26;4.47;;;3.42;;
11618;SDS011;5865;48.776;9.280;2022-07-29T14:03:56;5.68;;;3.72;;
11618;SDS011;5865;48.776;9.280;2022-07-29T14:06:23;4.15;;;3.70;;
11618;SDS011;5865;48.776;9.280;2022-07-29T14:08:50;3.65;;;3.35;;
11618;SDS011;5865;48.776;9.280;2022-07-29T14:11:17;4.13;;;3.28;;
11618;SDS011;5865;48.776;9.280;2022-07-29T14:13:44;3.55;;;3.22;;
11618;SDS011;5865;48.776;9.280;2022-07-29T14:16:11;4.25;;;2.95;;
11618;SDS011;5865;48.776;9.280;2022-07-29T14:18:38;4.15;;;3.63;;
11618;SDS011;5865;48.776;9.280;2022-07-29T14:21:06;4.18;;;3.22;;
11618;SDS011;5865;48.776;9.280;2022-07-29T14:23:33;4.07;;;3.58;;
11618;SDS011;5865;48.776;9.280;2022-07-29T14:26:00;3.65;;;3.13;;
11618;SDS011;5865;48.776;9.280;2022-07-29T14:28:28;5.18;;;3.25;;
11618;SDS011;5865;48.776;9.280;2022-07-29T14:30:56;3.47;;;3.03;;
11618;SDS011;5865;48.776;9.280;2022-07-29T14:33:23;7.28;;;3.35;;
11618;SDS011;5865;48.776;9.280;2022-07-29T14:35:51;4.07;;;3.70;;
11618;SDS011;5865;48.776;9.280;2022-07-29T14:38:19;6.78;;;3.90;;
11618;SDS011;5865;48.776;9.280;2022-07-29T14:40:47;5.63;;;3.53;;
11618;SDS011;5865;48.776;9.280;2022-07-29T14:43:14;3.95;;;3.65;;
11618;SDS011;5865;48.776;9.280;2022-07-29T14:45:42;5.03;;;4.50;;
11618;SDS011;5865;48.776;9.280;2022-07-29T14:48:09;3.97;;;3.58;;
11618;SDS011;5865;48.776;9.280;2022-07-29T14:50:36;4.43;;;3.63;;
11618;SDS011;5865;48.776;9.280;2022-07-29T14:53:03;4.60;;;4.20;;
11618;SDS011;5865;48.776;9.280;2022-07-29T14:55:32;5.97;;;3.58;;
11618;SDS011;5865;48.776;9.280;2022-07-29T14:57:59;5.80;;;3.75;;
11618;SDS011;5865;48.776;9.280;2022-07-29T15:00:26;5.15;;;3.97;;
11618;SDS011;5865;48.776;9.280;2022-07-29T15:02:57;4.60;;;4.07;;
11618;SDS011;5865;48.776;9.280;2022-07-29T15:05:24;5.93;;;4.25;;
11618;SDS011;5865;48.776;9.280;2022-07-29T15:07:51;4.30;;;3.65;;
11618;SDS011;5865;48.776;9.280;2022-07-29T15:10:18;4.03;;;3.55;;
11618;SDS011;5865;48.776;9.280;2022-07-29T15:12:47;4.97;;;4.10;;
11618;SDS011;5865;48.776;9.280;2022-07-29T15:15:14;6.57;;;4.30;;
11618;SDS011;5865;48.776;9.280;2022-07-29T15:17:40;6.63;;;4.20;;
11618;SDS011;5865;48.776;9.280;2022-07-29T15:20:08;6.25;;;4.32;;
11618;SDS011;5865;48.776;9.280;2022-07-29T15:22:36;6.63;;;4.35;;
11618;SDS011;5865;48.776;9.280;2022-07-29T15:25:05;7.00;;;3.97;;
11618;SDS011;5865;48.776;9.280;2022-07-29T15:27:32;6.03;;;3.70;;
11618;SDS011;5865;48.776;9.280;2022-07-29T15:30:01;5.38;;;3.70;;
11618;SDS011;5865;48.776;9.280;2022-07-29T15:32:28;6.93;;;4.32;;
11618;SDS011;5865;48.776;9.280;2022-07-29T15:34:55;5.53;;;4.00;;
11618;SDS011;5865;48.776;9.280;2022-07-29T15:37:24;4.50;;;3.65;;
11618;SDS011;5865;48.776;9.280;2022-07-29T15:40:19;6.68;;;3.47;;
11618;SDS011;5865;48.776;9.280;2022-07-29T15:42:48;4.85;;;3.33;;
11618;SDS011;5865;48.776;9.280;2022-07-29T15:45:16;3.25;;;2.90;;
11618;SDS011;5865;48.776;9.280;2022-07-29T15:47:45;4.38;;;3.30;;
11618;SDS011;5865;48.776;9.280;2022-07-29T15:50:12;4.28;;;3.88;;
11618;SDS011;5865;48.776;9.280;2022-07-29T15:52:44;4.93;;;3.45;;
11618;SDS011;5865;48.776;9.280;2022-07-29T15:55:11;4.25;;;3.83;;
11618;SDS011;5865;48.776;9.280;2022-07-29T15:57:39;3.70;;;3.40;;
11618;SDS011;5865;48.776;9.280;2022-07-29T16:00:07;5.25;;;3.90;;
11618;SDS011;5865;48.776;9.280;2022-07-29T16:02:36;4.97;;;3.40;;
11618;SDS011;5865;48.776;9.280;2022-07-29T16:05:03;4.72;;;3.33;;
11618;SDS011;5865;48.776;9.280;2022-07-29T16:07:31;4.05;;;3.60;;
11618;SDS011;5865;48.776;9.280;2022-07-29T16:09:58;4.90;;;3.38;;
11618;SDS011;5865;48.776;9.280;2022-07-29T16:12:25;3.47;;;3.05;;